CFG2EP ELLX-EDDF
Flight info
| Callsign | CFG2EP |
|---|---|
| Flight time | 0h 33m |
| Altitude | 23000 |
| Route | ASMOX Y891 LULAT Y890 KULZO T847 IMCOM IMCOM1A |
| Aircraft | A320/M-SDE3FGHIRWY/LB1 |
Departure
| Time | 2026-05-04 14:36 |
|---|---|
| Airport | Luxembourg-Findel International Airport (ELLX) |
Arrival
| Time | 2026-05-04 15:09 |
|---|---|
| Airport | Frankfurt Main Airport (EDDF) |
| Time | Latitude | Longitude | Altitude | Speed | Heading |
|---|---|---|---|---|---|
| 2026-05-04 14:36 | 49.70840 | 6.38204 | 4008 ft | 260 kts | 354° |
| 2026-05-04 14:36 | 49.72462 | 6.37268 | 4015 ft | 257 kts | 319° |
| 2026-05-04 14:36 | 49.73757 | 6.35303 | 4010 ft | 268 kts | 306° |
| 2026-05-04 14:36 | 49.74910 | 6.33021 | 4011 ft | 270 kts | 303° |
| 2026-05-04 14:37 | 49.76041 | 6.30687 | 4008 ft | 271 kts | 303° |
| 2026-05-04 14:37 | 49.76124 | 6.30518 | 4008 ft | 271 kts | 303° |
| 2026-05-04 14:38 | 49.76607 | 6.29600 | 3884 ft | 275 kts | 310° |
| 2026-05-04 14:38 | 49.78161 | 6.27848 | 4181 ft | 282 kts | 335° |
| 2026-05-04 14:38 | 49.80076 | 6.27172 | 5450 ft | 288 kts | 356° |
| 2026-05-04 14:38 | 49.82106 | 6.27158 | 6619 ft | 295 kts | 360° |
| 2026-05-04 14:39 | 49.84184 | 6.27236 | 7757 ft | 300 kts | 1° |
| 2026-05-04 14:39 | 49.86250 | 6.27350 | 8926 ft | 303 kts | 1° |
| 2026-05-04 14:39 | 49.88374 | 6.27478 | 10125 ft | 307 kts | 1° |
| 2026-05-04 14:40 | 49.91873 | 6.28731 | 11822 ft | 316 kts | 26° |
| 2026-05-04 14:40 | 49.93813 | 6.30146 | 12855 ft | 319 kts | 25° |
| 2026-05-04 14:40 | 49.95846 | 6.31605 | 13639 ft | 325 kts | 25° |
| 2026-05-04 14:40 | 49.97907 | 6.33073 | 13902 ft | 326 kts | 25° |
| 2026-05-04 14:41 | 49.99964 | 6.34542 | 13982 ft | 326 kts | 26° |
| 2026-05-04 14:41 | 50.01836 | 6.36491 | 13994 ft | 323 kts | 46° |
| 2026-05-04 14:41 | 50.03728 | 6.42569 | 14003 ft | 314 kts | 86° |
| 2026-05-04 14:42 | 50.04152 | 6.49348 | 14006 ft | 315 kts | 87° |
| 2026-05-04 14:42 | 50.04360 | 6.52733 | 14001 ft | 314 kts | 87° |
| 2026-05-04 14:42 | 50.04572 | 6.56194 | 13995 ft | 333 kts | 87° |
| 2026-05-04 14:43 | 50.04794 | 6.59831 | 14015 ft | 342 kts | 87° |
| 2026-05-04 14:43 | 50.05024 | 6.63524 | 14003 ft | 344 kts | 86° |
| 2026-05-04 14:43 | 50.05259 | 6.67230 | 14004 ft | 344 kts | 87° |
| 2026-05-04 14:43 | 50.05493 | 6.70897 | 13996 ft | 345 kts | 87° |
| 2026-05-04 14:44 | 50.05727 | 6.74605 | 14009 ft | 345 kts | 87° |
| 2026-05-04 14:44 | 50.05962 | 6.78367 | 14011 ft | 345 kts | 87° |
| 2026-05-04 14:44 | 50.06189 | 6.82042 | 14008 ft | 345 kts | 87° |
| 2026-05-04 14:44 | 50.06417 | 6.85756 | 14004 ft | 345 kts | 87° |
| 2026-05-04 14:45 | 50.06642 | 6.89468 | 14002 ft | 345 kts | 87° |
| 2026-05-04 14:45 | 50.06867 | 6.93186 | 14004 ft | 345 kts | 87° |
| 2026-05-04 14:45 | 50.07090 | 6.96907 | 14004 ft | 345 kts | 87° |
| 2026-05-04 14:45 | 50.07394 | 7.02071 | 13995 ft | 345 kts | 87° |
| 2026-05-04 14:46 | 50.07731 | 7.07826 | 14007 ft | 346 kts | 88° |
| 2026-05-04 14:46 | 50.07949 | 7.11551 | 14004 ft | 346 kts | 88° |
| 2026-05-04 14:46 | 50.08169 | 7.15283 | 14005 ft | 345 kts | 88° |
| 2026-05-04 14:46 | 50.08498 | 7.20822 | 13995 ft | 319 kts | 88° |
| 2026-05-04 14:47 | 50.08889 | 7.27476 | 14029 ft | 304 kts | 88° |
| 2026-05-04 14:47 | 50.09255 | 7.33984 | 14023 ft | 303 kts | 88° |
| 2026-05-04 14:47 | 50.09435 | 7.37264 | 14024 ft | 303 kts | 88° |
| 2026-05-04 14:47 | 50.09615 | 7.40538 | 14021 ft | 303 kts | 88° |
| 2026-05-04 14:48 | 50.09798 | 7.43809 | 14023 ft | 303 kts | 88° |
| 2026-05-04 14:48 | 50.09980 | 7.47079 | 14019 ft | 303 kts | 88° |
| 2026-05-04 14:48 | 50.10198 | 7.51012 | 14019 ft | 304 kts | 88° |
| 2026-05-04 14:48 | 50.10557 | 7.57560 | 14017 ft | 303 kts | 88° |
| 2026-05-04 14:49 | 50.10910 | 7.64111 | 13821 ft | 300 kts | 89° |
| 2026-05-04 14:49 | 50.10206 | 7.70244 | 12496 ft | 283 kts | 119° |
| 2026-05-04 14:49 | 50.08091 | 7.75264 | 11171 ft | 276 kts | 129° |
| 2026-05-04 14:49 | 50.05737 | 7.80497 | 10977 ft | 309 kts | 129° |
| 2026-05-04 14:50 | 50.04006 | 7.84382 | 10998 ft | 311 kts | 128° |
| 2026-05-04 14:50 | 50.02775 | 7.87155 | 10996 ft | 311 kts | 128° |
| 2026-05-04 14:50 | 50.01548 | 7.89918 | 10994 ft | 307 kts | 128° |
| 2026-05-04 14:50 | 50.00150 | 7.95653 | 10991 ft | 300 kts | 97° |
| 2026-05-04 14:51 | 50.01046 | 8.02012 | 10999 ft | 308 kts | 71° |
| 2026-05-04 14:51 | 50.02587 | 8.08229 | 10990 ft | 308 kts | 72° |
| 2026-05-04 14:51 | 50.03796 | 8.13195 | 10983 ft | 308 kts | 72° |
| 2026-05-04 14:51 | 50.04551 | 8.16311 | 10994 ft | 308 kts | 72° |
| 2026-05-04 14:52 | 50.05307 | 8.19429 | 10986 ft | 307 kts | 72° |
| 2026-05-04 14:52 | 50.06429 | 8.24075 | 10988 ft | 307 kts | 72° |
| 2026-05-04 14:52 | 50.07643 | 8.29095 | 10983 ft | 306 kts | 72° |
| 2026-05-04 14:52 | 50.08691 | 8.33449 | 10988 ft | 306 kts | 72° |
| 2026-05-04 14:53 | 50.09504 | 8.36834 | 10988 ft | 305 kts | 72° |
| 2026-05-04 14:53 | 50.10524 | 8.41066 | 10982 ft | 305 kts | 72° |
| 2026-05-04 14:53 | 50.11266 | 8.44153 | 10985 ft | 304 kts | 72° |
| 2026-05-04 14:53 | 50.12021 | 8.47228 | 10932 ft | 304 kts | 69° |
| 2026-05-04 14:54 | 50.12977 | 8.50165 | 10620 ft | 303 kts | 64° |
| 2026-05-04 14:54 | 50.13989 | 8.53048 | 10315 ft | 302 kts | 64° |
| 2026-05-04 14:54 | 50.15671 | 8.57790 | 9834 ft | 299 kts | 64° |
| 2026-05-04 14:54 | 50.16666 | 8.60583 | 9671 ft | 289 kts | 64° |
| 2026-05-04 14:55 | 50.17621 | 8.63269 | 9540 ft | 277 kts | 64° |
| 2026-05-04 14:55 | 50.18535 | 8.65834 | 9284 ft | 264 kts | 64° |
| 2026-05-04 14:55 | 50.19644 | 8.68958 | 8816 ft | 261 kts | 64° |
| 2026-05-04 14:55 | 50.20219 | 8.70590 | 8461 ft | 258 kts | 64° |
| 2026-05-04 14:56 | 50.20368 | 8.71015 | 8360 ft | 257 kts | 63° |
| 2026-05-04 14:56 | 50.20800 | 8.72514 | 9068 ft | 230 kts | 74° |
| 2026-05-04 14:57 | 50.21019 | 8.73608 | 10148 ft | 213 kts | 79° |
| 2026-05-04 14:57 | 50.21420 | 8.75865 | 11529 ft | 230 kts | 77° |
| 2026-05-04 14:57 | 50.22012 | 8.78493 | 11907 ft | 284 kts | 68° |
| 2026-05-04 14:57 | 50.22975 | 8.81430 | 12596 ft | 305 kts | 64° |
| 2026-05-04 14:58 | 50.23940 | 8.84209 | 12689 ft | 290 kts | 64° |
| 2026-05-04 14:58 | 50.24933 | 8.87077 | 11760 ft | 308 kts | 64° |
| 2026-05-04 14:58 | 50.25919 | 8.89914 | 11338 ft | 289 kts | 64° |
| 2026-05-04 14:58 | 50.26876 | 8.92657 | 10534 ft | 287 kts | 64° |
| 2026-05-04 14:59 | 50.27827 | 8.95378 | 9747 ft | 284 kts | 64° |
| 2026-05-04 14:59 | 50.28941 | 8.98573 | 8733 ft | 280 kts | 64° |
| 2026-05-04 14:59 | 50.32284 | 9.08680 | 6109 ft | 251 kts | 64° |
| 2026-05-04 15:00 | 50.32854 | 9.11227 | 5421 ft | 247 kts | 85° |
| 2026-05-04 15:00 | 50.32325 | 9.14516 | 4554 ft | 239 kts | 128° |
| 2026-05-04 15:00 | 50.30169 | 9.16321 | 4019 ft | 216 kts | 185° |
| 2026-05-04 15:01 | 50.25089 | 9.15022 | 4014 ft | 225 kts | 194° |
| 2026-05-04 15:01 | 50.23554 | 9.14569 | 4019 ft | 224 kts | 194° |
| 2026-05-04 15:01 | 50.22035 | 9.14118 | 4019 ft | 225 kts | 194° |
| 2026-05-04 15:01 | 50.20155 | 9.13551 | 4022 ft | 225 kts | 196° |
| 2026-05-04 15:02 | 50.17805 | 9.11274 | 4024 ft | 214 kts | 223° |
| 2026-05-04 15:02 | 50.15749 | 9.08259 | 4008 ft | 213 kts | 239° |
| 2026-05-04 15:02 | 50.15115 | 9.05885 | 4012 ft | 212 kts | 251° |
| 2026-05-04 15:02 | 50.14486 | 9.03135 | 4015 ft | 218 kts | 252° |
| 2026-05-04 15:03 | 50.13965 | 9.00889 | 4015 ft | 222 kts | 251° |
| 2026-05-04 15:03 | 50.13433 | 8.98610 | 4012 ft | 224 kts | 251° |
| 2026-05-04 15:03 | 50.12899 | 8.96330 | 4016 ft | 224 kts | 251° |
| 2026-05-04 15:03 | 50.12125 | 8.93026 | 4019 ft | 222 kts | 252° |
| 2026-05-04 15:04 | 50.11271 | 8.89389 | 3996 ft | 196 kts | 251° |
| 2026-05-04 15:04 | 50.10820 | 8.87467 | 4017 ft | 181 kts | 251° |
| 2026-05-04 15:04 | 50.10403 | 8.85697 | 3925 ft | 169 kts | 251° |
| 2026-05-04 15:04 | 50.10006 | 8.84008 | 3728 ft | 165 kts | 251° |
| 2026-05-04 15:05 | 50.09481 | 8.81780 | 3445 ft | 160 kts | 251° |
| 2026-05-04 15:05 | 50.09100 | 8.80165 | 3253 ft | 157 kts | 251° |
| 2026-05-04 15:05 | 50.08727 | 8.78585 | 3047 ft | 153 kts | 252° |
| 2026-05-04 15:05 | 50.08126 | 8.76036 | 2712 ft | 154 kts | 251° |
| 2026-05-04 15:06 | 50.07767 | 8.74517 | 2504 ft | 146 kts | 251° |
| 2026-05-04 15:06 | 50.07319 | 8.72623 | 2273 ft | 143 kts | 251° |
| 2026-05-04 15:06 | 50.06866 | 8.70712 | 2005 ft | 144 kts | 252° |
| 2026-05-04 15:07 | 50.06181 | 8.67821 | 1629 ft | 141 kts | 251° |
| 2026-05-04 15:07 | 50.05641 | 8.65543 | 1328 ft | 139 kts | 252° |
| 2026-05-04 15:07 | 50.05143 | 8.63445 | 1039 ft | 135 kts | 250° |
| 2026-05-04 15:07 | 50.04839 | 8.62120 | 866 ft | 130 kts | 250° |
| 2026-05-04 15:08 | 50.04516 | 8.60776 | 654 ft | 134 kts | 251° |
| 2026-05-04 15:08 | 50.04198 | 8.59441 | 509 ft | 127 kts | 249° |
| 2026-05-04 15:08 | 50.03902 | 8.58217 | 356 ft | 112 kts | 250° |
| 2026-05-04 15:08 | 50.03661 | 8.57204 | 354 ft | 85 kts | 250° |
| 2026-05-04 15:09 | 50.03546 | 8.56721 | 352 ft | 65 kts | 249° |
| 2026-05-04 15:09 | 50.03399 | 8.56133 | 349 ft | 53 kts | 249° |
| 2026-05-04 15:09 | 50.03298 | 8.55703 | 354 ft | 31 kts | 245° |
| 2026-05-04 15:10 | 50.03167 | 8.55757 | 346 ft | 0 kts | 115° |
| 2026-05-04 15:10 | 50.03166 | 8.55760 | 346 ft | 0 kts | 115° |
| 2026-05-04 15:10 | 50.03165 | 8.55762 | 346 ft | 3 kts | 115° |
| 2026-05-04 15:11 | 50.03150 | 8.55911 | 353 ft | 23 kts | 74° |
| 2026-05-04 15:11 | 50.03228 | 8.56153 | 351 ft | 26 kts | 64° |
| 2026-05-04 15:11 | 50.03296 | 8.56431 | 352 ft | 30 kts | 72° |
| 2026-05-04 15:11 | 50.03355 | 8.56741 | 351 ft | 27 kts | 83° |
| 2026-05-04 15:12 | 50.03294 | 8.56877 | 352 ft | 13 kts | 77° |
| 2026-05-04 15:12 | 50.03332 | 8.57039 | 348 ft | 24 kts | 73° |
| 2026-05-04 15:12 | 50.03440 | 8.57467 | 351 ft | 57 kts | 66° |
| 2026-05-04 15:12 | 50.03574 | 8.58008 | 348 ft | 37 kts | 71° |
| 2026-05-04 15:13 | 50.03481 | 8.58120 | 348 ft | 13 kts | 162° |